createdAt,value
2023-04-28T00:01:12.221Z,4.95
2023-04-28T00:03:57.756Z,5.10
2023-04-28T00:06:41.103Z,5.00
2023-04-28T00:09:24.134Z,4.60
2023-04-28T00:12:06.912Z,5.05
2023-04-28T00:14:49.557Z,5.13
2023-04-28T00:17:32.274Z,4.82
2023-04-28T00:20:16.253Z,5.38
2023-04-28T00:22:58.957Z,4.65
2023-04-28T00:25:41.552Z,5.22
2023-04-28T00:28:33.614Z,4.97
2023-04-28T00:31:17.805Z,3.80
2023-04-28T00:34:00.542Z,4.43
2023-04-28T00:36:44.661Z,4.38
2023-04-28T00:39:27.766Z,4.75
2023-04-28T00:42:10.824Z,4.28
2023-04-28T00:44:53.447Z,4.55
2023-04-28T00:47:37.516Z,3.95
2023-04-28T00:50:20.327Z,4.60
2023-04-28T00:53:04.285Z,4.25
2023-04-28T00:55:48.062Z,4.40
2023-04-28T00:58:31.316Z,4.38
2023-04-28T01:01:13.999Z,4.22
2023-04-28T01:03:56.834Z,4.22
2023-04-28T01:06:40.761Z,4.30
2023-04-28T01:09:24.768Z,3.78
2023-04-28T01:12:08.695Z,3.90
2023-04-28T01:14:58.215Z,3.80
2023-04-28T01:17:41.341Z,3.83
2023-04-28T01:20:23.993Z,4.30
2023-04-28T01:23:06.953Z,3.85
2023-04-28T01:25:51.178Z,3.78
2023-04-28T01:28:33.777Z,3.67
2023-04-28T01:31:16.609Z,3.28
2023-04-28T01:33:59.491Z,3.45
2023-04-28T01:36:42.117Z,3.63
2023-04-28T01:39:26.160Z,3.58
2023-04-28T01:42:10.097Z,3.60
2023-04-28T01:44:53.006Z,3.70
2023-04-28T01:47:35.634Z,3.95
2023-04-28T01:50:18.341Z,3.70
2023-04-28T01:53:00.917Z,3.45
2023-04-28T01:55:43.491Z,3.97
2023-04-28T01:58:27.786Z,3.90
2023-04-28T02:01:11.683Z,4.05
2023-04-28T02:03:55.692Z,3.90
2023-04-28T02:06:39.582Z,4.30
2023-04-28T02:09:22.152Z,3.97
2023-04-28T02:12:06.130Z,4.38
2023-04-28T02:14:51.246Z,4.30
2023-04-28T02:17:34.163Z,4.20
2023-04-28T02:20:17.068Z,4.18
2023-04-28T02:22:59.667Z,4.05
2023-04-28T02:25:42.290Z,3.65
2023-04-28T02:28:28.513Z,3.80
2023-04-28T02:31:13.892Z,3.40
2023-04-28T02:33:56.553Z,3.90
2023-04-28T02:36:40.262Z,3.72
2023-04-28T02:39:26.656Z,4.20
2023-04-28T02:42:11.857Z,4.28
2023-04-28T02:44:54.462Z,3.97
2023-04-28T02:47:38.521Z,4.60
2023-04-28T02:50:21.404Z,4.55
2023-04-28T02:53:04.027Z,4.47
2023-04-28T02:55:46.745Z,4.93
2023-04-28T02:58:29.352Z,4.97
2023-04-28T03:01:12.043Z,4.72
2023-04-28T03:03:56.420Z,5.00
2023-04-28T03:06:39.201Z,5.20
2023-04-28T03:09:21.775Z,4.88
2023-04-28T03:12:04.567Z,4.90
2023-04-28T03:14:48.761Z,5.07
2023-04-28T03:17:32.060Z,4.80
2023-04-28T03:20:16.202Z,5.28
2023-04-28T03:22:59.040Z,5.15
2023-04-28T03:25:41.768Z,5.72
2023-04-28T03:28:24.388Z,5.13
2023-04-28T03:31:06.980Z,4.70
2023-04-28T03:33:49.536Z,5.22
2023-04-28T03:36:34.522Z,5.30
2023-04-28T03:39:24.605Z,5.78
2023-04-28T03:42:07.291Z,5.18
2023-04-28T03:45:18.965Z,5.68
2023-04-28T03:48:01.991Z,5.60
2023-04-28T03:50:45.538Z,5.40
2023-04-28T03:53:29.796Z,5.18
2023-04-28T03:56:12.421Z,5.70
2023-04-28T03:58:55.292Z,5.63
2023-04-28T04:01:38.330Z,4.68
2023-04-28T04:04:21.493Z,5.72
2023-04-28T04:07:05.001Z,5.30
2023-04-28T04:09:49.415Z,5.03
2023-04-28T04:12:32.849Z,5.32
2023-04-28T04:15:15.521Z,5.18
2023-04-28T04:17:59.804Z,4.95
2023-04-28T04:20:47.187Z,5.32
2023-04-28T04:23:29.778Z,4.88
2023-04-28T04:26:13.723Z,4.85
2023-04-28T04:28:56.367Z,4.90
2023-04-28T04:31:39.031Z,4.90
2023-04-28T04:34:24.731Z,5.05
2023-04-28T04:37:07.427Z,5.00
2023-04-28T04:39:53.108Z,4.82
2023-04-28T04:42:37.055Z,4.57
2023-04-28T04:45:25.455Z,4.07
2023-04-28T04:48:08.104Z,4.43
2023-04-28T04:50:50.928Z,4.38
2023-04-28T04:53:33.549Z,4.35
2023-04-28T04:56:17.137Z,4.32
2023-04-28T04:59:01.336Z,3.97
2023-04-28T05:02:01.778Z,4.28
2023-04-28T05:04:44.661Z,4.18
2023-04-28T05:07:29.959Z,4.03
2023-04-28T05:10:12.736Z,4.25
2023-04-28T05:12:56.020Z,4.32
2023-04-28T05:15:39.978Z,4.03
2023-04-28T05:18:42.569Z,4.38
2023-04-28T05:21:25.611Z,3.72
2023-04-28T05:24:08.587Z,3.90
2023-04-28T05:26:51.687Z,4.18
2023-04-28T05:29:35.470Z,3.90
2023-04-28T05:32:19.593Z,3.80
2023-04-28T05:35:02.407Z,3.72
2023-04-28T05:37:45.295Z,3.40
2023-04-28T05:40:28.852Z,3.50
2023-04-28T05:43:11.981Z,3.42
2023-04-28T05:45:54.827Z,3.60
2023-04-28T05:48:38.814Z,3.63
2023-04-28T05:51:22.388Z,3.33
2023-04-28T05:54:05.031Z,3.33
2023-04-28T05:56:52.628Z,3.20
2023-04-28T05:59:35.319Z,3.28
2023-04-28T06:02:19.431Z,3.15
2023-04-28T06:05:04.935Z,3.30
2023-04-28T06:07:50.084Z,2.85
2023-04-28T06:10:33.013Z,2.65
2023-04-28T06:13:15.667Z,2.60
2023-04-28T06:15:58.346Z,2.65
2023-04-28T06:18:41.124Z,2.30
2023-04-28T06:21:25.319Z,2.35
2023-04-28T06:24:08.073Z,2.30
2023-04-28T06:26:50.963Z,2.30
2023-04-28T06:29:33.534Z,2.33
2023-04-28T06:32:16.202Z,2.10
2023-04-28T06:34:58.838Z,1.77
2023-04-28T06:37:43.237Z,1.67
2023-04-28T06:40:25.881Z,1.65
2023-04-28T06:43:12.718Z,1.40
2023-04-28T06:46:00.948Z,1.80
2023-04-28T06:48:43.820Z,1.67
2023-04-28T06:51:26.796Z,1.67
2023-04-28T06:54:11.573Z,1.70
2023-04-28T06:56:58.992Z,1.88
2023-04-28T06:59:43.883Z,1.73
2023-04-28T07:02:27.089Z,1.60
2023-04-28T07:05:09.937Z,1.65
2023-04-28T07:07:52.566Z,1.88
2023-04-28T07:10:36.535Z,1.60
2023-04-28T07:13:19.163Z,1.60
2023-04-28T07:16:02.004Z,1.70
2023-04-28T07:18:46.726Z,1.60
2023-04-28T07:21:29.328Z,1.50
2023-04-28T07:24:11.909Z,1.88
2023-04-28T07:26:55.935Z,1.70
2023-04-28T07:29:39.098Z,1.70
2023-04-28T07:32:21.795Z,1.70
2023-04-28T07:35:04.556Z,1.80
2023-04-28T07:37:47.336Z,1.77
2023-04-28T07:40:30.346Z,1.50
2023-04-28T07:43:14.565Z,1.60
2023-04-28T07:45:57.221Z,1.73
2023-04-28T07:48:39.989Z,1.50
2023-04-28T07:51:22.625Z,1.40
2023-04-28T07:54:05.577Z,1.60
2023-04-28T07:56:48.248Z,2.00
2023-04-28T07:59:32.205Z,1.55
2023-04-28T08:02:15.079Z,1.50
2023-04-28T08:04:58.063Z,1.33
2023-04-28T08:07:41.395Z,1.67
2023-04-28T08:10:24.107Z,1.77
2023-04-28T08:13:06.974Z,1.63
2023-04-28T08:15:51.569Z,2.28
2023-04-28T08:18:34.279Z,1.55
2023-04-28T08:21:16.931Z,1.70
2023-04-28T08:23:59.566Z,1.48
2023-04-28T08:26:42.213Z,1.50
2023-04-28T08:29:26.023Z,1.67
2023-04-28T08:32:10.113Z,1.48
2023-04-28T08:34:52.789Z,1.80
2023-04-28T08:37:35.747Z,1.60
2023-04-28T08:40:18.416Z,1.45
2023-04-28T08:43:01.200Z,1.75
2023-04-28T08:45:45.545Z,1.75
2023-04-28T08:48:31.315Z,1.50
2023-04-28T08:51:15.916Z,1.70
2023-04-28T08:56:46.153Z,1.85
2023-04-28T08:59:28.900Z,2.22
2023-04-28T09:02:11.695Z,1.92
2023-04-28T09:04:56.021Z,1.60
2023-04-28T09:07:38.812Z,1.85
2023-04-28T09:10:22.317Z,2.10
2023-04-28T09:13:05.242Z,1.90
2023-04-28T09:15:48.547Z,1.95
2023-04-28T09:18:32.891Z,1.92
2023-04-28T09:21:17.583Z,1.92
2023-04-28T09:24:00.312Z,1.88
2023-04-28T09:26:50.598Z,2.00
2023-04-28T09:29:33.392Z,2.03
2023-04-28T09:32:16.889Z,2.28
2023-04-28T09:35:00.456Z,2.20
2023-04-28T09:37:44.574Z,1.63
2023-04-28T09:40:27.202Z,2.00
2023-04-28T09:43:23.702Z,2.13
2023-04-28T09:46:06.786Z,2.65
2023-04-28T09:48:49.566Z,2.50
2023-04-28T09:51:32.378Z,2.40
2023-04-28T09:54:16.979Z,2.40
2023-04-28T09:56:59.803Z,2.20
2023-04-28T09:59:43.029Z,2.30
2023-04-28T10:02:42.044Z,2.22
2023-04-28T10:05:26.110Z,2.40
2023-04-28T10:08:09.241Z,2.20
2023-04-28T10:10:54.628Z,2.40
2023-04-28T10:13:37.653Z,2.70
2023-04-28T10:16:20.662Z,2.17
2023-04-28T10:19:04.202Z,2.65
2023-04-28T10:21:53.661Z,2.50
2023-04-28T10:24:47.806Z,2.63
2023-04-28T10:27:32.800Z,2.10
2023-04-28T10:33:17.532Z,2.63
2023-04-28T10:36:00.155Z,2.42
2023-04-28T10:39:02.455Z,2.65
2023-04-28T10:41:46.478Z,2.90
2023-04-28T10:44:45.679Z,2.50
2023-04-28T10:47:28.383Z,2.40
2023-04-28T10:50:11.289Z,2.10
2023-04-28T10:52:53.919Z,2.50
2023-04-28T10:55:37.339Z,2.30
2023-04-28T10:58:33.128Z,2.38
2023-04-28T11:01:31.883Z,2.30
2023-04-28T11:04:15.763Z,2.50
2023-04-28T11:07:11.271Z,2.65
2023-04-28T11:09:53.999Z,2.28
2023-04-28T11:12:36.878Z,2.15
2023-04-28T11:15:21.499Z,2.35
2023-04-28T11:18:11.558Z,2.45
2023-04-28T11:20:58.272Z,2.17
2023-04-28T11:23:40.959Z,2.10
2023-04-28T11:26:24.664Z,2.28
2023-04-28T11:29:07.622Z,2.20
2023-04-28T11:31:50.880Z,2.35
2023-04-28T11:34:35.473Z,2.35
2023-04-28T11:37:18.637Z,2.35
2023-04-28T11:40:10.997Z,2.35
2023-04-28T11:42:54.471Z,2.50
2023-04-28T11:45:37.870Z,2.58
2023-04-28T11:48:23.304Z,2.67
2023-04-28T11:51:07.455Z,2.50
2023-04-28T11:53:50.123Z,2.25
2023-04-28T11:56:33.088Z,2.25
2023-04-28T11:59:15.761Z,2.83
2023-04-28T12:01:59.976Z,2.72
2023-04-28T12:04:43.212Z,2.40
2023-04-28T12:07:27.228Z,2.55
2023-04-28T12:10:13.343Z,2.47
2023-04-28T12:12:56.153Z,3.00
2023-04-28T12:15:42.064Z,2.20
2023-04-28T12:18:24.745Z,2.63
2023-04-28T12:21:21.259Z,2.30
2023-04-28T12:24:15.609Z,2.72
2023-04-28T12:27:13.082Z,2.70
2023-04-28T12:29:56.384Z,2.50
2023-04-28T12:32:39.703Z,2.10
2023-04-28T12:35:23.357Z,2.22
2023-04-28T12:38:06.015Z,1.92
2023-04-28T12:40:50.025Z,2.40
2023-04-28T12:43:34.522Z,2.42
2023-04-28T12:46:17.208Z,2.67
2023-04-28T12:48:59.824Z,2.78
2023-04-28T12:51:42.477Z,2.85
2023-04-28T12:54:25.106Z,3.45
2023-04-28T12:57:09.113Z,2.67
2023-04-28T12:59:52.630Z,2.80
2023-04-28T13:02:35.757Z,2.88
2023-04-28T13:05:19.524Z,2.78
2023-04-28T13:08:02.239Z,2.90
2023-04-28T13:10:45.624Z,3.35
2023-04-28T13:13:29.611Z,3.00
2023-04-28T13:16:12.322Z,2.88
2023-04-28T13:18:55.004Z,2.90
2023-04-28T13:21:39.381Z,2.97
2023-04-28T13:24:22.168Z,2.53
2023-04-28T13:27:09.431Z,2.90
2023-04-28T13:29:53.753Z,2.85
2023-04-28T13:32:36.429Z,3.13
2023-04-28T13:35:19.918Z,3.25
2023-04-28T13:38:02.710Z,2.83
2023-04-28T13:40:45.411Z,2.80
2023-04-28T13:43:28.131Z,3.17
2023-04-28T13:46:12.346Z,2.75
2023-04-28T13:48:55.010Z,2.72
2023-04-28T13:51:37.700Z,2.45
2023-04-28T13:54:21.291Z,2.60
2023-04-28T13:57:03.962Z,2.35
2023-04-28T13:59:48.765Z,2.63
2023-04-28T14:02:33.043Z,2.70
2023-04-28T14:05:16.776Z,2.17
2023-04-28T14:07:59.415Z,2.90
2023-04-28T14:10:42.013Z,2.53
2023-04-28T14:13:25.640Z,2.28
2023-04-28T14:16:08.803Z,2.35
2023-04-28T14:18:52.846Z,2.55
2023-04-28T14:21:35.654Z,2.38
2023-04-28T14:24:18.707Z,2.42
2023-04-28T14:27:01.309Z,2.53
2023-04-28T14:29:44.594Z,2.20
2023-04-28T14:32:27.277Z,2.50
2023-04-28T14:35:12.138Z,2.55
2023-04-28T14:37:54.841Z,2.63
2023-04-28T14:40:37.464Z,2.83
2023-04-28T14:43:20.050Z,2.83
2023-04-28T14:46:02.809Z,3.10
2023-04-28T14:48:45.519Z,2.45
2023-04-28T14:51:29.519Z,2.40
2023-04-28T14:54:12.177Z,2.90
2023-04-28T14:56:54.805Z,2.58
2023-04-28T14:59:37.471Z,2.60
2023-04-28T15:02:21.533Z,2.45
2023-04-28T15:05:04.386Z,2.65
2023-04-28T15:07:48.679Z,3.08
2023-04-28T15:10:38.345Z,2.60
2023-04-28T15:13:22.125Z,2.80
2023-04-28T15:16:06.012Z,3.20
2023-04-28T15:18:49.093Z,2.58
2023-04-28T15:21:31.707Z,2.65
2023-04-28T15:24:15.991Z,2.85
2023-04-28T15:26:58.657Z,3.30
2023-04-28T15:29:41.343Z,3.25
2023-04-28T15:32:24.033Z,3.05
2023-04-28T15:35:07.296Z,2.97
2023-04-28T15:37:52.025Z,2.90
2023-04-28T15:40:36.276Z,3.03
2023-04-28T15:43:19.020Z,3.17
2023-04-28T15:46:02.722Z,2.63
2023-04-28T15:48:45.528Z,3.47
2023-04-28T15:51:28.353Z,3.33
2023-04-28T15:54:11.228Z,3.17
2023-04-28T15:56:55.143Z,3.13
2023-04-28T15:59:37.742Z,3.30
2023-04-28T16:02:22.218Z,3.35
2023-04-28T16:05:05.427Z,3.08
2023-04-28T16:07:48.484Z,3.47
2023-04-28T16:10:31.190Z,3.50
2023-04-28T16:13:15.135Z,3.20
2023-04-28T16:15:57.794Z,3.30
2023-04-28T16:18:40.420Z,3.60
2023-04-28T16:21:23.589Z,3.65
2023-04-28T16:24:06.504Z,3.33
2023-04-28T16:26:49.160Z,3.80
2023-04-28T16:29:33.128Z,3.78
2023-04-28T16:32:16.328Z,3.78
2023-04-28T16:34:59.130Z,3.60
2023-04-28T16:37:42.936Z,3.72
2023-04-28T16:40:25.822Z,4.10
2023-04-28T16:43:08.461Z,4.00
2023-04-28T16:45:52.465Z,3.92
2023-04-28T16:48:35.190Z,3.70
2023-04-28T16:51:17.908Z,4.50
2023-04-28T16:54:01.189Z,3.63
2023-04-28T16:56:43.778Z,3.85
2023-04-28T16:59:29.458Z,3.88
2023-04-28T17:02:13.550Z,4.20
2023-04-28T17:04:56.948Z,4.10
2023-04-28T17:07:39.541Z,4.18
2023-04-28T17:10:22.451Z,4.05
2023-04-28T17:13:05.103Z,4.00
2023-04-28T17:15:54.387Z,4.13
2023-04-28T17:18:38.452Z,4.40
2023-04-28T17:21:21.106Z,4.35
2023-04-28T17:24:04.076Z,4.30
2023-04-28T17:26:47.027Z,4.57
2023-04-28T17:29:29.593Z,4.20
2023-04-28T17:32:12.235Z,4.38
2023-04-28T17:34:56.381Z,5.07
2023-04-28T17:37:39.165Z,4.82
2023-04-28T17:40:24.057Z,5.20
2023-04-28T17:43:07.241Z,5.72
2023-04-28T17:45:50.694Z,5.35
2023-04-28T17:48:33.280Z,4.88
2023-04-28T17:51:17.577Z,6.07
2023-04-28T17:54:00.180Z,7.32
2023-04-28T17:56:42.772Z,7.55
2023-04-28T17:59:25.555Z,8.68
2023-04-28T18:02:09.169Z,8.18
2023-04-28T18:04:52.086Z,6.53
2023-04-28T18:07:36.321Z,7.22
2023-04-28T18:10:19.139Z,6.68
2023-04-28T18:13:02.338Z,6.15
2023-04-28T18:15:46.222Z,6.20
2023-04-28T18:18:30.694Z,5.85
2023-04-28T18:21:14.927Z,5.60
2023-04-28T18:23:59.007Z,5.43
2023-04-28T18:26:41.954Z,5.45
2023-04-28T18:29:24.515Z,5.28
2023-04-28T18:32:07.250Z,4.97
2023-04-28T18:34:50.344Z,4.72
2023-04-28T18:37:33.067Z,4.93
2023-04-28T18:40:17.154Z,5.00
2023-04-28T18:43:00.462Z,5.40
2023-04-28T18:45:44.311Z,5.07
2023-04-28T18:48:27.701Z,6.00
2023-04-28T18:51:10.691Z,6.00
2023-04-28T18:53:53.358Z,5.70
2023-04-28T18:56:37.737Z,6.07
2023-04-28T18:59:20.362Z,6.72
2023-04-28T19:02:03.046Z,5.80
2023-04-28T19:04:46.189Z,5.60
2023-04-28T19:07:29.649Z,5.95
2023-04-28T19:10:13.323Z,5.50
2023-04-28T19:12:57.397Z,5.88
2023-04-28T19:15:40.120Z,5.57
2023-04-28T19:18:22.791Z,5.03
2023-04-28T19:21:06.068Z,4.80
2023-04-28T19:23:48.720Z,5.03
2023-04-28T19:26:31.386Z,4.85
2023-04-28T19:29:17.294Z,4.45
2023-04-28T19:31:59.988Z,4.43
2023-04-28T19:34:42.914Z,4.50
2023-04-28T19:37:26.539Z,4.40
2023-04-28T19:40:09.738Z,4.60
2023-04-28T19:42:52.684Z,4.68
2023-04-28T19:45:37.082Z,4.82
2023-04-28T19:48:20.156Z,4.35
2023-04-28T19:51:02.788Z,4.00
2023-04-28T19:53:47.042Z,4.35
2023-04-28T19:56:30.239Z,4.63
2023-04-28T19:59:13.158Z,4.85
2023-04-28T20:01:57.720Z,5.07
2023-04-28T20:04:40.978Z,4.93
2023-04-28T20:07:23.782Z,4.90
2023-04-28T20:10:06.969Z,4.88
2023-04-28T20:12:50.312Z,5.10
2023-04-28T20:15:33.051Z,5.25
2023-04-28T20:18:17.079Z,5.32
2023-04-28T20:20:59.751Z,5.00
2023-04-28T20:23:42.419Z,4.55
2023-04-28T20:26:25.194Z,5.50
2023-04-28T20:29:08.681Z,4.70
2023-04-28T20:31:51.419Z,4.65
2023-04-28T20:34:36.233Z,5.25
2023-04-28T20:37:20.839Z,4.82
2023-04-28T20:40:04.602Z,4.85
2023-04-28T20:42:47.260Z,4.70
2023-04-28T20:45:31.455Z,5.40
2023-04-28T20:48:14.307Z,4.80
2023-04-28T20:51:01.451Z,5.20
2023-04-28T20:53:44.272Z,4.80
2023-04-28T20:56:27.142Z,4.63
2023-04-28T20:59:09.808Z,4.97
2023-04-28T21:01:52.533Z,4.72
2023-04-28T21:04:35.502Z,4.70
2023-04-28T21:07:19.446Z,4.60
2023-04-28T21:10:02.075Z,4.57
2023-04-28T21:12:45.540Z,4.75
2023-04-28T21:15:28.808Z,4.60
2023-04-28T21:18:11.459Z,4.10
2023-04-28T21:20:54.645Z,4.53
2023-04-28T21:23:39.399Z,4.50
2023-04-28T21:26:23.893Z,4.25
2023-04-28T21:29:07.842Z,3.90
2023-04-28T21:31:50.515Z,4.10
2023-04-28T21:34:33.329Z,4.53
2023-04-28T21:37:15.932Z,4.50
2023-04-28T21:39:59.930Z,4.00
2023-04-28T21:42:42.552Z,3.80
2023-04-28T21:45:25.365Z,4.22
2023-04-28T21:48:08.560Z,3.70
2023-04-28T21:50:51.408Z,3.40
2023-04-28T21:53:34.057Z,3.65
2023-04-28T21:56:18.272Z,3.65
2023-04-28T21:59:01.048Z,3.20
2023-04-28T22:01:43.746Z,3.25
2023-04-28T22:04:26.636Z,3.58
2023-04-28T22:07:09.417Z,3.53
2023-04-28T22:09:52.361Z,3.65
2023-04-28T22:12:36.438Z,3.72
2023-04-28T22:15:19.129Z,3.33
2023-04-28T22:18:01.934Z,3.55
2023-04-28T22:20:45.847Z,3.88
2023-04-28T22:23:28.475Z,3.80
2023-04-28T22:26:11.397Z,3.75
2023-04-28T22:28:55.375Z,3.60
2023-04-28T22:31:38.107Z,3.63
2023-04-28T22:34:21.362Z,3.85
2023-04-28T22:37:03.994Z,4.05
2023-04-28T22:39:46.572Z,3.60
2023-04-28T22:42:29.513Z,4.63
2023-04-28T22:45:13.677Z,4.22
2023-04-28T22:47:56.445Z,4.22
2023-04-28T22:50:39.201Z,4.10
2023-04-28T22:53:21.810Z,3.83
2023-04-28T22:56:04.412Z,3.90
2023-04-28T22:58:47.003Z,3.80
2023-04-28T23:01:31.914Z,3.58
2023-04-28T23:04:14.713Z,3.88
2023-04-28T23:06:57.524Z,4.15
2023-04-28T23:09:40.123Z,4.30
2023-04-28T23:12:22.756Z,3.88
2023-04-28T23:15:06.096Z,3.83
2023-04-28T23:17:50.139Z,4.43
2023-04-28T23:20:34.283Z,3.90
2023-04-28T23:23:16.915Z,4.35
2023-04-28T23:25:59.542Z,4.13
2023-04-28T23:28:42.221Z,4.53
2023-04-28T23:31:26.814Z,4.20
2023-04-28T23:34:10.872Z,3.85
2023-04-28T23:36:53.492Z,3.85
2023-04-28T23:39:36.142Z,3.97
2023-04-28T23:42:18.742Z,3.78
2023-04-28T23:45:02.267Z,3.90
2023-04-28T23:47:44.910Z,4.35
2023-04-28T23:50:28.987Z,3.72
2023-04-28T23:53:11.610Z,3.97
2023-04-28T23:55:54.231Z,3.97
2023-04-28T23:58:37.094Z,3.85
